sensor_id;sensor_type;location;lat;lon;timestamp;pressure;altitude;pressure_sealevel;temperature;humidity
40117;BME280;25829;50.228;18.936;2023-11-22T00:02:35;98792.50;;;-0.43;81.27
40117;BME280;25829;50.228;18.936;2023-11-22T00:05:36;98782.53;;;-0.47;81.26
40117;BME280;25829;50.228;18.936;2023-11-22T00:08:37;98790.31;;;-0.47;81.56
40117;BME280;25829;50.228;18.936;2023-11-22T00:11:38;98800.94;;;-0.50;81.30
40117;BME280;25829;50.228;18.936;2023-11-22T00:14:39;98803.16;;;-0.67;81.56
40117;BME280;25829;50.228;18.936;2023-11-22T00:17:40;98803.94;;;-0.76;81.55
40117;BME280;25829;50.228;18.936;2023-11-22T00:20:40;98812.63;;;-0.77;82.17
40117;BME280;25829;50.228;18.936;2023-11-22T00:23:41;98805.72;;;-0.76;81.84
40117;BME280;25829;50.228;18.936;2023-11-22T00:26:43;98810.19;;;-0.78;82.34
40117;BME280;25829;50.228;18.936;2023-11-22T00:29:44;98815.13;;;-0.75;82.28
40117;BME280;25829;50.228;18.936;2023-11-22T00:32:44;98825.72;;;-0.78;82.50
40117;BME280;25829;50.228;18.936;2023-11-22T00:35:45;98827.34;;;-0.77;82.81
40117;BME280;25829;50.228;18.936;2023-11-22T00:38:46;98824.16;;;-0.70;83.18
40117;BME280;25829;50.228;18.936;2023-11-22T00:41:47;98827.19;;;-0.65;82.56
40117;BME280;25829;50.228;18.936;2023-11-22T00:44:50;98822.25;;;-0.68;82.48
40117;BME280;25829;50.228;18.936;2023-11-22T00:47:51;98813.78;;;-0.70;82.82
40117;BME280;25829;50.228;18.936;2023-11-22T00:50:56;98811.44;;;-0.73;82.39
40117;BME280;25829;50.228;18.936;2023-11-22T00:53:57;98819.84;;;-0.80;81.84
40117;BME280;25829;50.228;18.936;2023-11-22T00:56:58;98831.78;;;-0.89;82.66
40117;BME280;25829;50.228;18.936;2023-11-22T00:59:59;98836.81;;;-0.88;83.10
40117;BME280;25829;50.228;18.936;2023-11-22T01:02:59;98841.69;;;-0.94;82.41
40117;BME280;25829;50.228;18.936;2023-11-22T01:06:00;98839.69;;;-0.91;83.27
40117;BME280;25829;50.228;18.936;2023-11-22T01:09:02;98843.91;;;-0.90;82.65
40117;BME280;25829;50.228;18.936;2023-11-22T01:12:04;98834.13;;;-0.86;82.76
40117;BME280;25829;50.228;18.936;2023-11-22T01:15:05;98843.16;;;-0.80;82.90
40117;BME280;25829;50.228;18.936;2023-11-22T01:18:06;98851.63;;;-0.78;82.60
40117;BME280;25829;50.228;18.936;2023-11-22T01:21:08;98846.13;;;-0.85;82.42
40117;BME280;25829;50.228;18.936;2023-11-22T01:24:09;98852.75;;;-0.92;82.56
40117;BME280;25829;50.228;18.936;2023-11-22T01:27:09;98855.84;;;-0.98;82.45
40117;BME280;25829;50.228;18.936;2023-11-22T01:30:10;98855.66;;;-1.07;82.41
40117;BME280;25829;50.228;18.936;2023-11-22T01:33:12;98852.66;;;-1.02;82.00
40117;BME280;25829;50.228;18.936;2023-11-22T01:36:13;98848.44;;;-1.03;82.48
40117;BME280;25829;50.228;18.936;2023-11-22T01:39:16;98866.19;;;-0.98;82.00
40117;BME280;25829;50.228;18.936;2023-11-22T01:42:17;98865.84;;;-0.94;81.86
40117;BME280;25829;50.228;18.936;2023-11-22T01:45:18;98866.41;;;-0.90;81.30
40117;BME280;25829;50.228;18.936;2023-11-22T01:48:19;98860.19;;;-0.99;81.64
40117;BME280;25829;50.228;18.936;2023-11-22T01:51:21;98860.09;;;-1.09;81.23
40117;BME280;25829;50.228;18.936;2023-11-22T01:54:22;98867.81;;;-1.18;81.49
40117;BME280;25829;50.228;18.936;2023-11-22T01:57:23;98872.47;;;-1.12;82.27
40117;BME280;25829;50.228;18.936;2023-11-22T02:00:26;98873.84;;;-0.97;82.93
40117;BME280;25829;50.228;18.936;2023-11-22T02:03:31;98870.22;;;-1.05;81.84
40117;BME280;25829;50.228;18.936;2023-11-22T02:06:32;98868.97;;;-1.11;81.94
40117;BME280;25829;50.228;18.936;2023-11-22T02:09:34;98880.50;;;-1.15;81.88
40117;BME280;25829;50.228;18.936;2023-11-22T02:12:35;98879.66;;;-1.16;81.88
40117;BME280;25829;50.228;18.936;2023-11-22T02:15:36;98884.22;;;-1.08;81.73
40117;BME280;25829;50.228;18.936;2023-11-22T02:18:38;98885.75;;;-1.05;81.71
40117;BME280;25829;50.228;18.936;2023-11-22T02:21:39;98887.66;;;-1.08;81.26
40117;BME280;25829;50.228;18.936;2023-11-22T02:24:40;98892.75;;;-1.17;81.75
40117;BME280;25829;50.228;18.936;2023-11-22T02:27:41;98896.69;;;-1.34;81.62
40117;BME280;25829;50.228;18.936;2023-11-22T02:30:43;98902.09;;;-1.37;81.94
40117;BME280;25829;50.228;18.936;2023-11-22T02:33:43;98906.22;;;-1.35;82.23
40117;BME280;25829;50.228;18.936;2023-11-22T02:36:44;98906.81;;;-1.42;81.47
40117;BME280;25829;50.228;18.936;2023-11-22T02:40:04;98918.59;;;-1.49;81.57
40117;BME280;25829;50.228;18.936;2023-11-22T02:43:05;98923.50;;;-1.46;81.99
40117;BME280;25829;50.228;18.936;2023-11-22T02:46:09;98921.84;;;-1.36;81.85
40117;BME280;25829;50.228;18.936;2023-11-22T02:49:10;98927.00;;;-1.36;81.52
40117;BME280;25829;50.228;18.936;2023-11-22T02:52:11;98927.00;;;-1.36;80.94
40117;BME280;25829;50.228;18.936;2023-11-22T02:55:15;98933.50;;;-1.42;80.53
40117;BME280;25829;50.228;18.936;2023-11-22T02:58:15;98937.50;;;-1.60;80.96
40117;BME280;25829;50.228;18.936;2023-11-22T03:01:17;98937.75;;;-1.52;81.72
40117;BME280;25829;50.228;18.936;2023-11-22T03:04:19;98940.56;;;-1.44;81.66
40117;BME280;25829;50.228;18.936;2023-11-22T03:07:20;98949.03;;;-1.42;81.24
40117;BME280;25829;50.228;18.936;2023-11-22T03:10:21;98956.69;;;-1.51;80.62
40117;BME280;25829;50.228;18.936;2023-11-22T03:13:22;98959.06;;;-1.60;81.22
40117;BME280;25829;50.228;18.936;2023-11-22T03:16:23;98966.91;;;-1.50;81.98
40117;BME280;25829;50.228;18.936;2023-11-22T03:19:25;98977.28;;;-1.39;81.48
40117;BME280;25829;50.228;18.936;2023-11-22T03:22:27;98980.91;;;-1.41;80.55
40117;BME280;25829;50.228;18.936;2023-11-22T03:25:30;98986.19;;;-1.43;81.23
40117;BME280;25829;50.228;18.936;2023-11-22T03:28:31;98988.91;;;-1.33;80.73
40117;BME280;25829;50.228;18.936;2023-11-22T03:31:36;98996.19;;;-1.27;80.67
40117;BME280;25829;50.228;18.936;2023-11-22T03:34:37;98995.59;;;-1.19;80.65
40117;BME280;25829;50.228;18.936;2023-11-22T03:37:38;99005.50;;;-1.24;80.10
40117;BME280;25829;50.228;18.936;2023-11-22T03:40:38;99020.31;;;-1.26;80.42
40117;BME280;25829;50.228;18.936;2023-11-22T03:43:40;99020.44;;;-1.39;79.84
40117;BME280;25829;50.228;18.936;2023-11-22T03:46:41;99031.97;;;-1.43;79.94
40117;BME280;25829;50.228;18.936;2023-11-22T03:49:42;99030.56;;;-1.59;80.30
40117;BME280;25829;50.228;18.936;2023-11-22T03:52:43;99035.22;;;-1.64;80.50
40117;BME280;25829;50.228;18.936;2023-11-22T03:55:44;99036.41;;;-1.68;80.90
40117;BME280;25829;50.228;18.936;2023-11-22T03:58:44;99036.78;;;-1.61;80.71
40117;BME280;25829;50.228;18.936;2023-11-22T04:01:45;99050.19;;;-1.56;80.33
40117;BME280;25829;50.228;18.936;2023-11-22T04:04:46;99057.47;;;-1.50;80.36
40117;BME280;25829;50.228;18.936;2023-11-22T04:07:47;99071.50;;;-1.52;79.81
40117;BME280;25829;50.228;18.936;2023-11-22T04:10:48;99079.25;;;-1.52;79.71
40117;BME280;25829;50.228;18.936;2023-11-22T04:13:48;99073.94;;;-1.51;79.49
40117;BME280;25829;50.228;18.936;2023-11-22T04:16:49;99084.28;;;-1.62;78.21
40117;BME280;25829;50.228;18.936;2023-11-22T04:19:50;99089.81;;;-1.67;78.44
40117;BME280;25829;50.228;18.936;2023-11-22T04:22:51;99096.19;;;-1.60;79.68
40117;BME280;25829;50.228;18.936;2023-11-22T04:25:51;99096.78;;;-1.45;79.44
40117;BME280;25829;50.228;18.936;2023-11-22T04:28:52;99098.78;;;-1.37;78.62
40117;BME280;25829;50.228;18.936;2023-11-22T04:31:53;99105.84;;;-1.39;79.23
40117;BME280;25829;50.228;18.936;2023-11-22T04:34:54;99108.19;;;-1.36;79.17
40117;BME280;25829;50.228;18.936;2023-11-22T04:37:54;99115.88;;;-1.35;79.52
40117;BME280;25829;50.228;18.936;2023-11-22T04:40:55;99127.38;;;-1.39;79.30
40117;BME280;25829;50.228;18.936;2023-11-22T04:43:56;99133.97;;;-1.35;79.40
40117;BME280;25829;50.228;18.936;2023-11-22T04:46:57;99139.25;;;-1.36;78.63
40117;BME280;25829;50.228;18.936;2023-11-22T04:49:59;99142.41;;;-1.55;78.67
40117;BME280;25829;50.228;18.936;2023-11-22T04:53:01;99142.84;;;-1.61;79.49
40117;BME280;25829;50.228;18.936;2023-11-22T04:56:05;99147.19;;;-1.73;79.65
40117;BME280;25829;50.228;18.936;2023-11-22T04:59:06;99151.84;;;-1.78;80.07
40117;BME280;25829;50.228;18.936;2023-11-22T05:02:07;99149.53;;;-1.70;80.51
40117;BME280;25829;50.228;18.936;2023-11-22T05:05:08;99169.56;;;-1.85;79.97
40117;BME280;25829;50.228;18.936;2023-11-22T05:08:12;99178.88;;;-1.82;80.04
40117;BME280;25829;50.228;18.936;2023-11-22T05:11:12;99180.81;;;-1.97;79.46
40117;BME280;25829;50.228;18.936;2023-11-22T05:14:16;99181.88;;;-2.12;79.84
40117;BME280;25829;50.228;18.936;2023-11-22T05:17:16;99178.88;;;-2.06;80.34
40117;BME280;25829;50.228;18.936;2023-11-22T05:20:17;99180.97;;;-2.11;79.47
40117;BME280;25829;50.228;18.936;2023-11-22T05:23:18;99182.38;;;-2.31;79.56
40117;BME280;25829;50.228;18.936;2023-11-22T05:26:19;99194.34;;;-2.30;79.71
40117;BME280;25829;50.228;18.936;2023-11-22T05:29:19;99187.94;;;-2.24;79.60
40117;BME280;25829;50.228;18.936;2023-11-22T05:32:20;99193.31;;;-2.28;79.30
40117;BME280;25829;50.228;18.936;2023-11-22T05:35:23;99192.28;;;-2.25;79.88
40117;BME280;25829;50.228;18.936;2023-11-22T05:38:24;99193.81;;;-2.22;79.45
40117;BME280;25829;50.228;18.936;2023-11-22T05:41:26;99201.34;;;-2.19;79.67
40117;BME280;25829;50.228;18.936;2023-11-22T05:44:27;99224.94;;;-2.24;79.29
40117;BME280;25829;50.228;18.936;2023-11-22T05:47:28;99224.22;;;-2.26;79.52
40117;BME280;25829;50.228;18.936;2023-11-22T05:50:29;99225.00;;;-2.13;80.20
40117;BME280;25829;50.228;18.936;2023-11-22T05:53:29;99221.81;;;-2.16;79.16
40117;BME280;25829;50.228;18.936;2023-11-22T05:56:30;99226.56;;;-2.10;79.47
40117;BME280;25829;50.228;18.936;2023-11-22T05:59:31;99223.13;;;-1.98;80.06
40117;BME280;25829;50.228;18.936;2023-11-22T06:02:31;99237.38;;;-1.92;79.38
40117;BME280;25829;50.228;18.936;2023-11-22T06:05:32;99243.28;;;-2.03;78.86
40117;BME280;25829;50.228;18.936;2023-11-22T06:08:33;99249.97;;;-2.12;78.62
40117;BME280;25829;50.228;18.936;2023-11-22T06:11:34;99253.78;;;-2.17;79.22
40117;BME280;25829;50.228;18.936;2023-11-22T06:14:35;99267.81;;;-2.09;79.25
40117;BME280;25829;50.228;18.936;2023-11-22T06:17:36;99265.47;;;-2.12;78.48
40117;BME280;25829;50.228;18.936;2023-11-22T06:20:36;99271.34;;;-2.10;79.06
40117;BME280;25829;50.228;18.936;2023-11-22T06:23:37;99267.31;;;-2.14;78.82
40117;BME280;25829;50.228;18.936;2023-11-22T06:26:38;99282.72;;;-2.12;78.79
40117;BME280;25829;50.228;18.936;2023-11-22T06:29:40;99290.25;;;-2.09;78.75
40117;BME280;25829;50.228;18.936;2023-11-22T06:32:43;99284.06;;;-2.19;78.15
40117;BME280;25829;50.228;18.936;2023-11-22T06:35:44;99279.22;;;-2.37;78.65
40117;BME280;25829;50.228;18.936;2023-11-22T06:38:45;99290.19;;;-2.33;78.95
40117;BME280;25829;50.228;18.936;2023-11-22T06:41:47;99296.59;;;-2.26;79.03
40117;BME280;25829;50.228;18.936;2023-11-22T06:44:48;99287.72;;;-2.22;78.28
40117;BME280;25829;50.228;18.936;2023-11-22T06:47:48;99284.81;;;-2.17;78.61
40117;BME280;25829;50.228;18.936;2023-11-22T06:50:50;99285.00;;;-2.08;78.46
40117;BME280;25829;50.228;18.936;2023-11-22T06:53:52;99290.91;;;-2.18;77.46
40117;BME280;25829;50.228;18.936;2023-11-22T06:56:55;99299.69;;;-2.21;77.89
40117;BME280;25829;50.228;18.936;2023-11-22T06:59:56;99300.31;;;-2.17;78.46
40117;BME280;25829;50.228;18.936;2023-11-22T07:02:57;99305.56;;;-2.19;77.75
40117;BME280;25829;50.228;18.936;2023-11-22T07:05:57;99302.91;;;-2.17;78.30
40117;BME280;25829;50.228;18.936;2023-11-22T07:08:59;99309.41;;;-2.12;78.40
40117;BME280;25829;50.228;18.936;2023-11-22T07:12:00;99308.47;;;-2.11;78.22
40117;BME280;25829;50.228;18.936;2023-11-22T07:15:01;99314.75;;;-2.02;78.47
40117;BME280;25829;50.228;18.936;2023-11-22T07:18:03;99326.31;;;-1.95;78.35
40117;BME280;25829;50.228;18.936;2023-11-22T07:21:04;99334.00;;;-1.93;77.18
40117;BME280;25829;50.228;18.936;2023-11-22T07:24:06;99338.75;;;-2.00;77.31
40117;BME280;25829;50.228;18.936;2023-11-22T07:27:07;99354.69;;;-2.06;77.06
40117;BME280;25829;50.228;18.936;2023-11-22T07:30:08;99351.41;;;-2.08;77.64
40117;BME280;25829;50.228;18.936;2023-11-22T07:33:09;99360.19;;;-2.11;77.53
40117;BME280;25829;50.228;18.936;2023-11-22T07:36:11;99367.19;;;-2.13;77.54
40117;BME280;25829;50.228;18.936;2023-11-22T07:39:15;99370.59;;;-2.12;77.00
40117;BME280;25829;50.228;18.936;2023-11-22T07:42:19;99368.63;;;-2.09;77.60
40117;BME280;25829;50.228;18.936;2023-11-22T07:45:20;99386.03;;;-2.11;77.21
40117;BME280;25829;50.228;18.936;2023-11-22T07:48:21;99386.44;;;-2.17;76.95
40117;BME280;25829;50.228;18.936;2023-11-22T07:51:23;99388.63;;;-2.23;77.36
40117;BME280;25829;50.228;18.936;2023-11-22T07:54:24;99379.09;;;-2.23;77.49
40117;BME280;25829;50.228;18.936;2023-11-22T07:57:25;99383.44;;;-2.11;77.78
40117;BME280;25829;50.228;18.936;2023-11-22T08:00:26;99368.63;;;-2.09;77.79
40117;BME280;25829;50.228;18.936;2023-11-22T08:03:27;99376.72;;;-2.00;77.62
40117;BME280;25829;50.228;18.936;2023-11-22T08:10:07;99379.22;;;-2.12;77.06
40117;BME280;25829;50.228;18.936;2023-11-22T08:13:22;99387.34;;;-2.05;77.83
40117;BME280;25829;50.228;18.936;2023-11-22T08:16:23;99399.78;;;-1.97;76.84
40117;BME280;25829;50.228;18.936;2023-11-22T08:19:24;99408.69;;;-2.01;76.98
40117;BME280;25829;50.228;18.936;2023-11-22T08:22:25;99408.47;;;-1.98;77.32
40117;BME280;25829;50.228;18.936;2023-11-22T08:25:28;99387.06;;;-2.00;76.30
40117;BME280;25829;50.228;18.936;2023-11-22T08:28:29;99403.00;;;-2.07;75.97
40117;BME280;25829;50.228;18.936;2023-11-22T08:31:30;99408.03;;;-2.05;77.18
40117;BME280;25829;50.228;18.936;2023-11-22T08:34:31;99415.59;;;-2.02;76.74
40117;BME280;25829;50.228;18.936;2023-11-22T08:37:32;99417.91;;;-1.97;76.91
40117;BME280;25829;50.228;18.936;2023-11-22T08:40:37;99414.16;;;-1.93;75.60
40117;BME280;25829;50.228;18.936;2023-11-22T08:43:38;99425.94;;;-2.02;75.96
40117;BME280;25829;50.228;18.936;2023-11-22T08:46:38;99433.22;;;-1.94;76.67
40117;BME280;25829;50.228;18.936;2023-11-22T08:49:39;99430.38;;;-1.91;75.70
40117;BME280;25829;50.228;18.936;2023-11-22T08:52:41;99426.69;;;-2.00;76.15
40117;BME280;25829;50.228;18.936;2023-11-22T08:55:47;99422.13;;;-1.96;75.99
40117;BME280;25829;50.228;18.936;2023-11-22T08:58:47;99431.31;;;-1.92;75.52
40117;BME280;25829;50.228;18.936;2023-11-22T09:01:48;99445.28;;;-1.95;75.65
40117;BME280;25829;50.228;18.936;2023-11-22T09:04:58;99445.38;;;-2.09;75.36
40117;BME280;25829;50.228;18.936;2023-11-22T09:07:59;99438.38;;;-2.07;75.79
40117;BME280;25829;50.228;18.936;2023-11-22T09:11:00;99431.56;;;-2.08;75.74
40117;BME280;25829;50.228;18.936;2023-11-22T09:14:01;99435.47;;;-2.03;76.07
40117;BME280;25829;50.228;18.936;2023-11-22T09:17:05;99441.59;;;-1.91;76.46
40117;BME280;25829;50.228;18.936;2023-11-22T09:20:07;99448.06;;;-1.85;75.14
40117;BME280;25829;50.228;18.936;2023-11-22T09:23:11;99449.75;;;-1.84;75.78
40117;BME280;25829;50.228;18.936;2023-11-22T09:26:13;99451.50;;;-1.85;74.85
40117;BME280;25829;50.228;18.936;2023-11-22T09:29:14;99438.06;;;-1.77;75.71
40117;BME280;25829;50.228;18.936;2023-11-22T09:32:21;99435.34;;;-1.63;75.67
40117;BME280;25829;50.228;18.936;2023-11-22T09:35:21;99443.81;;;-1.61;74.33
40117;BME280;25829;50.228;18.936;2023-11-22T09:38:22;99456.75;;;-1.61;74.43
40117;BME280;25829;50.228;18.936;2023-11-22T09:41:23;99467.09;;;-1.61;73.83
40117;BME280;25829;50.228;18.936;2023-11-22T09:44:25;99471.13;;;-1.57;73.73
40117;BME280;25829;50.228;18.936;2023-11-22T09:47:28;99473.00;;;-1.59;73.81
40117;BME280;25829;50.228;18.936;2023-11-22T09:50:40;99469.81;;;-1.49;74.15
40117;BME280;25829;50.228;18.936;2023-11-22T09:56:45;99478.47;;;-1.50;73.49
40117;BME280;25829;50.228;18.936;2023-11-22T09:59:52;99475.78;;;-1.49;73.99
40117;BME280;25829;50.228;18.936;2023-11-22T10:02:53;99475.53;;;-1.33;74.45
40117;BME280;25829;50.228;18.936;2023-11-22T10:05:58;99490.94;;;-1.19;74.03
40117;BME280;25829;50.228;18.936;2023-11-22T10:09:03;99492.28;;;-1.13;73.85
40117;BME280;25829;50.228;18.936;2023-11-22T10:12:12;99488.75;;;-1.12;72.62
40117;BME280;25829;50.228;18.936;2023-11-22T10:15:14;99495.84;;;-1.27;71.87
40117;BME280;25829;50.228;18.936;2023-11-22T10:18:16;99488.81;;;-1.38;72.35
40117;BME280;25829;50.228;18.936;2023-11-22T10:21:20;99474.94;;;-1.37;72.70
40117;BME280;25829;50.228;18.936;2023-11-22T10:24:31;99476.78;;;-1.26;73.12
40117;BME280;25829;50.228;18.936;2023-11-22T10:27:33;99467.88;;;-1.22;72.89
40117;BME280;25829;50.228;18.936;2023-11-22T10:30:34;99483.19;;;-1.19;72.06
40117;BME280;25829;50.228;18.936;2023-11-22T10:33:42;99474.03;;;-1.12;72.65
40117;BME280;25829;50.228;18.936;2023-11-22T10:36:43;99467.72;;;-1.08;72.89
40117;BME280;25829;50.228;18.936;2023-11-22T10:39:51;99469.38;;;-1.07;72.29
40117;BME280;25829;50.228;18.936;2023-11-22T10:42:52;99465.78;;;-1.17;71.31
40117;BME280;25829;50.228;18.936;2023-11-22T10:45:55;99470.34;;;-1.20;72.27
40117;BME280;25829;50.228;18.936;2023-11-22T10:48:57;99470.31;;;-1.08;73.09
40117;BME280;25829;50.228;18.936;2023-11-22T10:51:59;99468.34;;;-1.04;71.32
40117;BME280;25829;50.228;18.936;2023-11-22T10:55:03;99467.44;;;-1.16;71.29
40117;BME280;25829;50.228;18.936;2023-11-22T10:58:06;99464.97;;;-1.17;71.32
40117;BME280;25829;50.228;18.936;2023-11-22T11:01:07;99471.09;;;-1.18;71.99
40117;BME280;25829;50.228;18.936;2023-11-22T11:04:09;99473.13;;;-1.11;72.09
40117;BME280;25829;50.228;18.936;2023-11-22T11:07:14;99475.91;;;-1.01;72.49
40117;BME280;25829;50.228;18.936;2023-11-22T11:10:20;99486.25;;;-1.01;71.65
40117;BME280;25829;50.228;18.936;2023-11-22T11:13:22;99477.75;;;-1.03;71.64
40117;BME280;25829;50.228;18.936;2023-11-22T11:16:24;99498.91;;;-1.09;71.06
40117;BME280;25829;50.228;18.936;2023-11-22T11:19:25;99509.16;;;-1.08;72.08
40117;BME280;25829;50.228;18.936;2023-11-22T11:22:28;99512.06;;;-1.12;71.64
40117;BME280;25829;50.228;18.936;2023-11-22T11:25:29;99504.41;;;-1.14;71.78
40117;BME280;25829;50.228;18.936;2023-11-22T11:28:42;99521.19;;;-1.07;71.54
40117;BME280;25829;50.228;18.936;2023-11-22T11:31:45;99527.91;;;-1.04;72.26
40117;BME280;25829;50.228;18.936;2023-11-22T11:34:48;99522.63;;;-1.02;71.92
40117;BME280;25829;50.228;18.936;2023-11-22T11:38:00;99525.81;;;-0.99;71.63
40117;BME280;25829;50.228;18.936;2023-11-22T11:41:11;99517.84;;;-0.96;71.81
40117;BME280;25829;50.228;18.936;2023-11-22T11:44:13;99527.69;;;-1.01;71.02
40117;BME280;25829;50.228;18.936;2023-11-22T11:47:14;99526.16;;;-1.03;71.41
40117;BME280;25829;50.228;18.936;2023-11-22T11:50:14;99526.91;;;-1.14;70.19
40117;BME280;25829;50.228;18.936;2023-11-22T11:53:18;99526.91;;;-1.27;70.51
40117;BME280;25829;50.228;18.936;2023-11-22T11:56:20;99521.94;;;-1.30;70.79
40117;BME280;25829;50.228;18.936;2023-11-22T11:59:21;99522.88;;;-1.31;70.30
40117;BME280;25829;50.228;18.936;2023-11-22T12:02:22;99519.16;;;-1.40;70.09
40117;BME280;25829;50.228;18.936;2023-11-22T12:05:23;99517.78;;;-1.33;71.72
40117;BME280;25829;50.228;18.936;2023-11-22T12:08:25;99518.94;;;-1.24;71.64
40117;BME280;25829;50.228;18.936;2023-11-22T12:11:30;99524.84;;;-1.22;71.16
40117;BME280;25829;50.228;18.936;2023-11-22T12:14:30;99521.41;;;-1.22;70.86
40117;BME280;25829;50.228;18.936;2023-11-22T12:17:32;99525.66;;;-1.21;71.38
40117;BME280;25829;50.228;18.936;2023-11-22T12:20:33;99507.53;;;-1.21;71.19
40117;BME280;25829;50.228;18.936;2023-11-22T12:23:34;99509.41;;;-1.23;70.50
40117;BME280;25829;50.228;18.936;2023-11-22T12:26:35;99517.09;;;-1.35;69.96
40117;BME280;25829;50.228;18.936;2023-11-22T12:29:36;99530.66;;;-1.31;71.00
40117;BME280;25829;50.228;18.936;2023-11-22T12:32:40;99538.91;;;-1.26;71.15
40117;BME280;25829;50.228;18.936;2023-11-22T12:35:42;99549.78;;;-1.21;70.97
40117;BME280;25829;50.228;18.936;2023-11-22T12:38:44;99548.66;;;-1.17;71.12
40117;BME280;25829;50.228;18.936;2023-11-22T12:41:47;99545.84;;;-1.14;70.30
40117;BME280;25829;50.228;18.936;2023-11-22T12:44:50;99556.41;;;-1.17;70.40
40117;BME280;25829;50.228;18.936;2023-11-22T12:47:55;99549.69;;;-1.19;70.64
40117;BME280;25829;50.228;18.936;2023-11-22T12:50:57;99551.34;;;-1.18;69.86
40117;BME280;25829;50.228;18.936;2023-11-22T12:53:58;99538.91;;;-1.26;70.20
40117;BME280;25829;50.228;18.936;2023-11-22T12:56:58;99534.56;;;-1.25;70.34
40117;BME280;25829;50.228;18.936;2023-11-22T12:59:59;99527.72;;;-1.26;70.53
40117;BME280;25829;50.228;18.936;2023-11-22T13:03:00;99542.22;;;-1.24;70.67
40117;BME280;25829;50.228;18.936;2023-11-22T13:06:01;99550.50;;;-1.19;70.08
40117;BME280;25829;50.228;18.936;2023-11-22T13:09:02;99540.69;;;-1.26;70.29
40117;BME280;25829;50.228;18.936;2023-11-22T13:12:03;99534.69;;;-1.27;69.99
40117;BME280;25829;50.228;18.936;2023-11-22T13:15:05;99536.25;;;-1.37;69.65
40117;BME280;25829;50.228;18.936;2023-11-22T13:18:06;99535.28;;;-1.36;70.43
40117;BME280;25829;50.228;18.936;2023-11-22T13:21:08;99547.22;;;-1.34;70.60
40117;BME280;25829;50.228;18.936;2023-11-22T13:24:09;99543.06;;;-1.36;69.48
40117;BME280;25829;50.228;18.936;2023-11-22T13:27:11;99540.25;;;-1.33;70.80
40117;BME280;25829;50.228;18.936;2023-11-22T13:30:12;99532.28;;;-1.30;70.08
40117;BME280;25829;50.228;18.936;2023-11-22T13:33:13;99554.16;;;-1.34;69.13
40117;BME280;25829;50.228;18.936;2023-11-22T13:36:14;99571.03;;;-1.41;69.79
40117;BME280;25829;50.228;18.936;2023-11-22T13:39:15;99570.63;;;-1.48;70.54
40117;BME280;25829;50.228;18.936;2023-11-22T13:42:16;99582.81;;;-1.50;70.59
40117;BME280;25829;50.228;18.936;2023-11-22T13:45:17;99582.63;;;-1.47;70.81
40117;BME280;25829;50.228;18.936;2023-11-22T13:48:18;99588.75;;;-1.35;71.07
40117;BME280;25829;50.228;18.936;2023-11-22T13:51:19;99594.34;;;-1.28;71.10
40117;BME280;25829;50.228;18.936;2023-11-22T13:54:19;99572.47;;;-1.24;70.70
40117;BME280;25829;50.228;18.936;2023-11-22T13:57:20;99562.63;;;-1.19;70.43
40117;BME280;25829;50.228;18.936;2023-11-22T14:00:23;99586.03;;;-1.21;70.38
40117;BME280;25829;50.228;18.936;2023-11-22T14:03:25;99588.44;;;-1.31;69.46
40117;BME280;25829;50.228;18.936;2023-11-22T14:06:26;99621.47;;;-1.34;70.22
40117;BME280;25829;50.228;18.936;2023-11-22T14:09:26;99634.59;;;-1.37;70.64
40117;BME280;25829;50.228;18.936;2023-11-22T14:12:27;99640.81;;;-1.40;70.57
40117;BME280;25829;50.228;18.936;2023-11-22T14:15:28;99629.13;;;-1.45;70.36
40117;BME280;25829;50.228;18.936;2023-11-22T14:18:29;99626.41;;;-1.44;70.77
40117;BME280;25829;50.228;18.936;2023-11-22T14:21:31;99625.59;;;-1.44;70.76
40117;BME280;25829;50.228;18.936;2023-11-22T14:24:33;99653.03;;;-1.42;70.76
40117;BME280;25829;50.228;18.936;2023-11-22T14:27:45;99651.28;;;-1.41;70.85
40117;BME280;25829;50.228;18.936;2023-11-22T14:30:46;99629.63;;;-1.40;71.38
40117;BME280;25829;50.228;18.936;2023-11-22T14:33:47;99625.00;;;-1.35;71.38
40117;BME280;25829;50.228;18.936;2023-11-22T14:36:47;99625.50;;;-1.30;70.96
40117;BME280;25829;50.228;18.936;2023-11-22T14:39:48;99629.66;;;-1.27;71.02
40117;BME280;25829;50.228;18.936;2023-11-22T14:42:49;99623.53;;;-1.26;71.61
40117;BME280;25829;50.228;18.936;2023-11-22T14:45:52;99601.03;;;-1.26;70.61
40117;BME280;25829;50.228;18.936;2023-11-22T14:48:53;99593.19;;;-1.24;70.96
40117;BME280;25829;50.228;18.936;2023-11-22T14:51:53;99610.91;;;-1.18;71.12
40117;BME280;25829;50.228;18.936;2023-11-22T14:54:55;99621.03;;;-1.15;70.44
40117;BME280;25829;50.228;18.936;2023-11-22T14:57:56;99615.47;;;-1.22;70.22
40117;BME280;25829;50.228;18.936;2023-11-22T15:00:59;99622.38;;;-1.22;70.28
40117;BME280;25829;50.228;18.936;2023-11-22T15:04:00;99624.47;;;-1.27;70.17
40117;BME280;25829;50.228;18.936;2023-11-22T15:07:01;99616.88;;;-1.43;69.26
40117;BME280;25829;50.228;18.936;2023-11-22T15:10:02;99611.72;;;-1.43;70.60
40117;BME280;25829;50.228;18.936;2023-11-22T15:13:02;99595.88;;;-1.39;70.44
40117;BME280;25829;50.228;18.936;2023-11-22T15:16:03;99593.94;;;-1.35;69.42
40117;BME280;25829;50.228;18.936;2023-11-22T15:19:05;99603.53;;;-1.37;70.29
40117;BME280;25829;50.228;18.936;2023-11-22T15:22:07;99604.47;;;-1.38;70.41
40117;BME280;25829;50.228;18.936;2023-11-22T15:25:08;99593.50;;;-1.42;70.28
40117;BME280;25829;50.228;18.936;2023-11-22T15:28:10;99596.91;;;-1.41;68.74
40117;BME280;25829;50.228;18.936;2023-11-22T15:31:15;99613.47;;;-1.44;70.10
40117;BME280;25829;50.228;18.936;2023-11-22T15:34:16;99614.31;;;-1.43;70.24
40117;BME280;25829;50.228;18.936;2023-11-22T15:37:17;99627.25;;;-1.43;69.33
40117;BME280;25829;50.228;18.936;2023-11-22T15:40:17;99629.22;;;-1.47;70.66
40117;BME280;25829;50.228;18.936;2023-11-22T15:43:18;99630.03;;;-1.46;69.63
40117;BME280;25829;50.228;18.936;2023-11-22T15:46:20;99620.63;;;-1.47;70.26
40117;BME280;25829;50.228;18.936;2023-11-22T15:49:24;99614.91;;;-1.40;70.87
40117;BME280;25829;50.228;18.936;2023-11-22T15:52:25;99621.78;;;-1.39;69.63
40117;BME280;25829;50.228;18.936;2023-11-22T15:55:28;99622.09;;;-1.31;69.39
40117;BME280;25829;50.228;18.936;2023-11-22T15:58:29;99616.41;;;-1.36;69.19